< < Back
Terminal Aerodrome Forecast


Current Version              Previous Versions:   1  2  3  4  5  6  7  8  9  

Terminal Aerodrome Forecast

587
FTUS42 KGSP 010500
TAFCLT
TAF
KCLT 010538Z 0106/0206 00000KT P6SM SKC
      TEMPO 0109/0113 3SM BR
     FM011300 01003KT P6SM FEW250
     FM011700 19004KT P6SM FEW050=

Latest METAR

137
SAUS70 KWBC 010800 RRK
MTRCLT
METAR KCLT 010752Z 00000KT 7SM CLR 17/16 A2993 RMK AO2 SLP126
T01670156


USA.gov is the U.S. government's official web portal to all federal, state and local government web resources and services.